createdAt,value
2022-10-11T00:01:02.345Z,89.73
2022-10-11T00:03:30.553Z,90.07
2022-10-11T00:05:58.729Z,89.91
2022-10-11T00:08:27.240Z,89.92
2022-10-11T00:11:00.302Z,89.99
2022-10-11T00:13:29.651Z,89.47
2022-10-11T00:15:58.714Z,89.52
2022-10-11T00:18:28.412Z,89.56
2022-10-11T00:21:04.039Z,89.69
2022-10-11T00:23:32.957Z,89.94
2022-10-11T00:26:03.126Z,89.94
2022-10-11T00:28:32.076Z,89.75
2022-10-11T00:31:00.258Z,89.98
2022-10-11T00:33:29.890Z,89.69
2022-10-11T00:36:00.285Z,89.69
2022-10-11T00:38:28.478Z,89.46
2022-10-11T00:40:56.641Z,89.54
2022-10-11T00:43:27.491Z,89.24
2022-10-11T00:46:29.845Z,89.64
2022-10-11T00:49:05.077Z,89.67
2022-10-11T00:51:44.451Z,89.54
2022-10-11T00:54:18.496Z,90.12
2022-10-11T00:56:50.930Z,89.20
2022-10-11T00:59:24.159Z,90.65
2022-10-11T01:01:52.656Z,89.72
2022-10-11T01:04:22.279Z,89.78
2022-10-11T01:06:51.900Z,89.74
2022-10-11T01:09:21.517Z,90.02
2022-10-11T01:11:51.436Z,90.27
2022-10-11T01:14:55.122Z,89.90
2022-10-11T01:17:33.243Z,90.15
2022-10-11T01:20:35.493Z,89.89
2022-10-11T01:23:46.050Z,89.81
2022-10-11T01:26:42.927Z,90.12
2022-10-11T01:29:19.701Z,89.47
2022-10-11T01:31:56.597Z,90.03
2022-10-11T01:34:32.219Z,89.24
2022-10-11T01:37:05.696Z,90.06
2022-10-11T01:39:40.787Z,89.89
2022-10-11T01:42:12.941Z,89.85
2022-10-11T01:44:43.729Z,90.05
2022-10-11T01:47:14.084Z,90.14
2022-10-11T01:49:42.766Z,89.99
2022-10-11T01:52:13.397Z,90.61
2022-10-11T01:55:09.306Z,90.55
2022-10-11T01:57:53.058Z,90.70
2022-10-11T02:00:24.016Z,90.98
2022-10-11T02:03:16.067Z,89.67
2022-10-11T02:05:49.994Z,89.69
2022-10-11T02:08:26.683Z,90.00
2022-10-11T02:11:02.070Z,90.20
2022-10-11T02:13:35.416Z,89.96
2022-10-11T02:16:09.870Z,89.92
2022-10-11T02:18:45.190Z,90.09
2022-10-11T02:21:17.993Z,90.87
2022-10-11T02:23:51.099Z,90.42
2022-10-11T02:26:21.969Z,90.59
2022-10-11T02:28:51.955Z,90.51
2022-10-11T02:31:21.680Z,90.69
2022-10-11T02:33:57.990Z,90.18
2022-10-11T02:36:33.507Z,90.40
2022-10-11T02:39:08.989Z,89.96
2022-10-11T02:41:40.901Z,90.93
2022-10-11T02:44:14.113Z,90.96
2022-10-11T02:46:44.149Z,90.63
2022-10-11T02:49:14.990Z,90.70
2022-10-11T02:51:43.520Z,90.85
2022-10-11T02:54:11.723Z,90.96
2022-10-11T02:56:39.876Z,90.00
2022-10-11T02:59:08.006Z,90.51
2022-10-11T03:01:36.239Z,91.03
2022-10-11T03:04:04.481Z,90.49
2022-10-11T03:06:34.091Z,90.65
2022-10-11T03:09:02.302Z,90.17
2022-10-11T03:11:30.443Z,90.96
2022-10-11T03:13:58.548Z,90.63
2022-10-11T03:16:26.685Z,90.02
2022-10-11T03:18:54.820Z,90.67
2022-10-11T03:21:25.081Z,90.57
2022-10-11T03:23:54.625Z,90.62
2022-10-11T03:26:23.386Z,90.87
2022-10-11T03:28:51.620Z,91.19
2022-10-11T03:31:20.637Z,90.09
2022-10-11T03:33:49.159Z,91.41
2022-10-11T03:36:17.423Z,90.74
2022-10-11T03:38:45.538Z,90.81
2022-10-11T03:41:15.141Z,90.62
2022-10-11T03:43:43.257Z,90.00
2022-10-11T03:46:11.410Z,90.37
2022-10-11T03:48:40.083Z,90.62
2022-10-11T03:51:08.252Z,90.22
2022-10-11T03:53:38.030Z,90.24
2022-10-11T03:56:08.703Z,90.73
2022-10-11T03:58:38.551Z,90.00
2022-10-11T04:01:06.647Z,89.64
2022-10-11T04:03:35.247Z,89.46
2022-10-11T04:06:03.826Z,89.36
2022-10-11T04:08:32.229Z,89.68
2022-10-11T04:11:00.422Z,90.23
2022-10-11T04:13:28.599Z,90.47
2022-10-11T04:15:58.110Z,90.14
2022-10-11T04:18:26.276Z,90.22
2022-10-11T04:20:54.431Z,90.46
2022-10-11T04:23:22.742Z,90.67
2022-10-11T04:25:50.963Z,90.20
2022-10-11T04:28:19.238Z,89.63
2022-10-11T04:30:48.604Z,90.21
2022-10-11T04:33:18.141Z,90.63
2022-10-11T04:35:46.238Z,89.95
2022-10-11T04:38:14.444Z,90.55
2022-10-11T04:40:42.553Z,90.42
2022-10-11T04:43:10.679Z,89.67
2022-10-11T04:45:38.782Z,90.46
2022-10-11T04:48:07.994Z,90.04
2022-10-11T04:50:37.633Z,90.01
2022-10-11T04:53:05.761Z,90.36
2022-10-11T04:55:34.158Z,90.31
2022-10-11T04:58:02.311Z,90.51
2022-10-11T05:00:30.768Z,89.66
2022-10-11T05:02:58.916Z,90.05
2022-10-11T05:05:27.010Z,90.74
2022-10-11T05:07:56.630Z,90.26
2022-10-11T05:10:24.697Z,89.91
2022-10-11T05:12:52.931Z,90.10
2022-10-11T05:15:21.018Z,90.20
2022-10-11T05:17:49.222Z,90.09
2022-10-11T05:20:17.610Z,90.64
2022-10-11T05:22:45.806Z,90.56
2022-10-11T05:25:15.353Z,91.01
2022-10-11T05:27:43.513Z,90.14
2022-10-11T05:30:12.803Z,90.60
2022-10-11T05:32:41.033Z,90.52
2022-10-11T05:35:10.383Z,90.55
2022-10-11T05:37:38.514Z,90.36
2022-10-11T05:40:08.493Z,90.09
2022-10-11T05:42:38.002Z,90.21
2022-10-11T05:45:08.009Z,90.27
2022-10-11T05:47:36.109Z,90.54
2022-10-11T05:50:04.399Z,90.75
2022-10-11T05:52:32.544Z,90.73
2022-10-11T05:55:00.684Z,90.40
2022-10-11T05:57:28.811Z,90.37
2022-10-11T05:59:58.283Z,90.74
2022-10-11T06:02:26.449Z,90.51
2022-10-11T06:04:54.596Z,90.41
2022-10-11T06:07:23.145Z,90.41
2022-10-11T06:09:52.190Z,90.11
2022-10-11T06:12:21.665Z,90.09
2022-10-11T06:14:49.838Z,90.72
2022-10-11T06:17:19.328Z,90.18
2022-10-11T06:19:47.443Z,90.51
2022-10-11T06:22:15.564Z,90.75
2022-10-11T06:24:43.686Z,90.15
2022-10-11T06:27:12.057Z,90.86
2022-10-11T06:29:40.200Z,90.41
2022-10-11T06:32:08.355Z,90.54
2022-10-11T06:34:37.905Z,90.70
2022-10-11T06:37:06.093Z,90.02
2022-10-11T06:39:34.447Z,90.90
2022-10-11T06:42:02.912Z,90.45
2022-10-11T06:44:31.299Z,91.04
2022-10-11T06:46:59.454Z,90.32
2022-10-11T06:49:27.620Z,91.44
2022-10-11T06:51:57.055Z,90.88
2022-10-11T06:54:25.576Z,91.39
2022-10-11T06:56:53.729Z,91.49
2022-10-11T06:59:22.097Z,90.67
2022-10-11T07:01:50.259Z,91.49
2022-10-11T07:04:18.401Z,90.78
2022-10-11T07:06:46.481Z,91.48
2022-10-11T07:09:16.000Z,91.83
2022-10-11T07:11:44.288Z,91.63
2022-10-11T07:14:12.463Z,91.72
2022-10-11T07:16:40.598Z,91.89
2022-10-11T07:19:08.862Z,91.32
2022-10-11T07:21:37.550Z,91.52
2022-10-11T07:24:06.715Z,92.27
2022-10-11T07:26:38.838Z,92.11
2022-10-11T07:29:08.934Z,91.70
2022-10-11T07:31:39.994Z,91.80
2022-10-11T07:34:08.278Z,91.80
2022-10-11T07:36:37.201Z,91.55
2022-10-11T07:39:07.135Z,92.23
2022-10-11T07:41:43.116Z,91.98
2022-10-11T07:44:13.987Z,91.97
2022-10-11T07:46:42.116Z,92.22
2022-10-11T07:49:10.274Z,91.75
2022-10-11T07:51:38.430Z,92.28
2022-10-11T07:54:07.567Z,91.65
2022-10-11T07:56:39.979Z,91.17
2022-10-11T07:59:08.255Z,91.45
2022-10-11T08:01:36.415Z,91.59
2022-10-11T08:04:04.734Z,91.59
2022-10-11T08:06:33.337Z,91.23
2022-10-11T08:09:02.950Z,91.74
2022-10-11T08:11:34.267Z,91.26
2022-10-11T08:14:08.475Z,91.26
2022-10-11T08:16:36.898Z,90.99
2022-10-11T08:19:05.628Z,91.25
2022-10-11T08:21:33.938Z,90.91
2022-10-11T08:24:04.195Z,90.87
2022-10-11T08:26:33.017Z,90.69
2022-10-11T08:29:03.958Z,90.53
2022-10-11T08:31:33.462Z,90.18
2022-10-11T08:34:02.699Z,90.32
2022-10-11T08:36:31.018Z,89.95
2022-10-11T08:38:59.364Z,90.19
2022-10-11T08:41:32.986Z,89.78
2022-10-11T08:44:21.757Z,90.05
2022-10-11T08:46:59.532Z,89.46
2022-10-11T08:49:32.580Z,89.33
2022-10-11T08:52:05.778Z,89.32
2022-10-11T08:54:45.722Z,89.33
2022-10-11T08:57:17.594Z,88.54
2022-10-11T08:59:51.164Z,88.35
2022-10-11T09:03:03.121Z,88.10
2022-10-11T09:05:29.182Z,87.90
2022-10-11T09:08:09.461Z,87.47
2022-10-11T09:10:56.478Z,87.13
2022-10-11T09:13:52.574Z,87.08
2022-10-11T09:16:31.846Z,86.10
2022-10-11T09:19:25.273Z,86.50
2022-10-11T09:22:05.759Z,85.53
2022-10-11T09:25:01.561Z,85.64
2022-10-11T09:28:01.223Z,84.77
2022-10-11T09:30:25.361Z,84.15
2022-10-11T09:33:10.992Z,84.10
2022-10-11T09:35:44.281Z,83.26
2022-10-11T09:38:29.246Z,83.11
2022-10-11T09:41:10.847Z,82.59
2022-10-11T09:43:39.345Z,81.68
2022-10-11T09:46:20.976Z,81.49
2022-10-11T09:48:51.930Z,80.90
2022-10-11T09:51:23.557Z,80.42
2022-10-11T09:54:00.684Z,79.60
2022-10-11T09:56:31.607Z,78.90
2022-10-11T09:59:28.430Z,79.38
2022-10-11T10:02:24.235Z,78.75
2022-10-11T10:05:05.709Z,78.33
2022-10-11T10:07:36.147Z,77.81
2022-10-11T10:10:31.203Z,77.59
2022-10-11T10:13:02.818Z,76.94
2022-10-11T10:15:33.340Z,76.65
2022-10-11T10:18:02.088Z,76.42
2022-10-11T10:20:35.314Z,75.84
2022-10-11T10:23:10.580Z,75.45
2022-10-11T10:25:43.486Z,75.32
2022-10-11T10:28:22.520Z,75.05
2022-10-11T10:30:55.833Z,74.29
2022-10-11T10:33:26.371Z,74.24
2022-10-11T10:36:02.423Z,73.75
2022-10-11T10:38:37.380Z,73.45
2022-10-11T10:41:10.692Z,73.23
2022-10-11T10:43:41.508Z,72.75
2022-10-11T10:46:23.636Z,72.75
2022-10-11T10:49:28.681Z,72.19
2022-10-11T10:52:05.910Z,71.78
2022-10-11T10:54:42.003Z,71.71
2022-10-11T10:57:20.878Z,71.26
2022-10-11T11:00:11.472Z,70.67
2022-10-11T11:02:50.066Z,69.55
2022-10-11T11:05:32.139Z,68.96
2022-10-11T11:08:14.718Z,68.72
2022-10-11T11:10:50.855Z,67.92
2022-10-11T11:13:30.777Z,67.71
2022-10-11T11:16:12.509Z,67.34
2022-10-11T11:18:52.526Z,67.27
2022-10-11T11:21:34.992Z,67.37
2022-10-11T11:24:19.907Z,67.37
2022-10-11T11:26:55.747Z,66.94
2022-10-11T11:29:49.827Z,67.39
2022-10-11T11:32:30.059Z,67.06
2022-10-11T11:35:03.696Z,67.01
2022-10-11T11:37:36.109Z,66.47
2022-10-11T11:40:15.711Z,66.36
2022-10-11T11:42:49.445Z,65.84
2022-10-11T11:45:23.248Z,65.21
2022-10-11T11:47:57.192Z,64.57
2022-10-11T11:50:28.642Z,63.86
2022-10-11T11:53:04.232Z,62.33
2022-10-11T11:55:44.932Z,61.84
2022-10-11T11:58:28.937Z,60.63
2022-10-11T12:01:08.515Z,60.02
2022-10-11T12:03:42.712Z,59.16
2022-10-11T12:06:27.703Z,58.36
2022-10-11T12:09:09.566Z,57.72
2022-10-11T12:11:49.697Z,57.22
2022-10-11T12:14:30.977Z,56.68
2022-10-11T12:17:19.120Z,56.63
2022-10-11T12:20:11.555Z,56.38
2022-10-11T12:22:53.504Z,55.61
2022-10-11T12:25:42.483Z,55.01
2022-10-11T12:29:03.684Z,54.69
2022-10-11T12:31:35.624Z,53.98
2022-10-11T12:34:34.689Z,54.09
2022-10-11T12:37:51.956Z,53.25
2022-10-11T12:40:41.800Z,53.01
2022-10-11T12:43:38.046Z,51.10
2022-10-11T12:46:40.670Z,49.65
2022-10-11T12:49:33.244Z,48.34
2022-10-11T12:52:04.657Z,48.35
2022-10-11T12:55:04.939Z,49.05
2022-10-11T12:58:07.582Z,49.87
2022-10-11T13:00:45.602Z,49.40
2022-10-11T13:03:35.377Z,48.79
2022-10-11T13:06:15.424Z,48.24
2022-10-11T13:08:49.635Z,48.41
2022-10-11T13:11:24.623Z,49.15
2022-10-11T13:13:57.301Z,49.92
2022-10-11T13:16:29.287Z,50.61
2022-10-11T13:19:01.075Z,51.01
2022-10-11T13:21:37.263Z,51.20
2022-10-11T13:24:14.743Z,50.55
2022-10-11T13:26:46.809Z,51.01
2022-10-11T13:29:18.305Z,51.38
2022-10-11T13:31:48.562Z,51.93
2022-10-11T13:34:23.052Z,52.19
2022-10-11T13:36:57.653Z,52.37
2022-10-11T13:39:31.487Z,52.82
2022-10-11T13:42:01.502Z,52.82
2022-10-11T13:44:29.831Z,53.01
2022-10-11T13:46:57.967Z,52.96
2022-10-11T13:49:39.137Z,52.54
2022-10-11T13:52:22.202Z,53.09
2022-10-11T13:55:14.693Z,53.20
2022-10-11T13:57:46.368Z,53.54
2022-10-11T14:00:29.509Z,53.70
2022-10-11T14:03:03.718Z,53.86
2022-10-11T14:05:39.201Z,53.73
2022-10-11T14:08:22.227Z,53.80
2022-10-11T14:10:56.699Z,54.64
2022-10-11T14:13:31.669Z,54.67
2022-10-11T14:16:03.606Z,55.06
2022-10-11T14:18:47.316Z,55.02
2022-10-11T14:21:51.257Z,55.51
2022-10-11T14:24:19.453Z,55.82
2022-10-11T14:26:50.811Z,56.11
2022-10-11T14:29:25.294Z,56.22
2022-10-11T14:32:03.270Z,56.47
2022-10-11T14:34:32.375Z,56.78
2022-10-11T14:37:01.933Z,57.27
2022-10-11T14:39:33.760Z,57.38
2022-10-11T14:42:01.877Z,57.78
2022-10-11T14:44:30.046Z,58.02
2022-10-11T14:46:58.133Z,58.43
2022-10-11T14:49:29.315Z,58.11
2022-10-11T14:51:59.530Z,58.35
2022-10-11T14:54:30.887Z,58.48
2022-10-11T14:57:01.526Z,58.73
2022-10-11T14:59:36.331Z,58.71
2022-10-11T15:02:06.648Z,59.02
2022-10-11T15:04:35.046Z,59.32
2022-10-11T15:07:03.787Z,59.39
2022-10-11T15:09:33.348Z,59.35
2022-10-11T15:12:01.564Z,59.01
2022-10-11T15:14:29.761Z,58.63
2022-10-11T15:16:57.877Z,58.37
2022-10-11T15:19:26.770Z,58.15
2022-10-11T15:21:54.908Z,57.45
2022-10-11T15:24:23.035Z,57.37
2022-10-11T15:26:53.294Z,57.41
2022-10-11T15:29:24.014Z,57.20
2022-10-11T15:31:52.639Z,56.96
2022-10-11T15:34:21.339Z,57.00
2022-10-11T15:36:49.975Z,55.84
2022-10-11T15:39:27.496Z,56.07
2022-10-11T15:41:58.605Z,56.43
2022-10-11T15:44:27.261Z,56.69
2022-10-11T15:46:55.461Z,56.95
2022-10-11T15:49:23.675Z,57.08
2022-10-11T15:51:51.891Z,57.73
2022-10-11T15:54:20.025Z,57.81
2022-10-11T15:56:48.138Z,57.95
2022-10-11T15:59:18.054Z,57.92
2022-10-11T16:01:46.927Z,57.97
2022-10-11T16:04:15.187Z,57.89
2022-10-11T16:06:43.267Z,58.51
2022-10-11T16:09:11.362Z,58.79
2022-10-11T16:11:39.697Z,59.34
2022-10-11T16:14:07.859Z,59.83
2022-10-11T16:16:37.412Z,60.10
2022-10-11T16:19:06.249Z,61.10
2022-10-11T16:21:34.981Z,61.09
2022-10-11T16:24:04.894Z,61.51
2022-10-11T16:26:33.542Z,61.94
2022-10-11T16:29:01.810Z,62.71
2022-10-11T16:31:30.003Z,62.91
2022-10-11T16:33:59.836Z,63.22
2022-10-11T16:36:35.979Z,63.95
2022-10-11T16:39:09.059Z,64.51
2022-10-11T16:41:38.011Z,64.60
2022-10-11T16:44:06.671Z,65.54
2022-10-11T16:46:35.998Z,66.17
2022-10-11T16:49:06.383Z,66.38
2022-10-11T16:51:34.637Z,66.80
2022-10-11T16:54:02.931Z,67.53
2022-10-11T16:56:37.406Z,67.41
2022-10-11T16:59:08.340Z,67.48
2022-10-11T17:01:36.485Z,68.10
2022-10-11T17:04:06.285Z,68.48
2022-10-11T17:06:34.521Z,68.60
2022-10-11T17:09:02.837Z,68.63
2022-10-11T17:11:31.046Z,69.47
2022-10-11T17:13:59.286Z,69.32
2022-10-11T17:16:27.514Z,70.13
2022-10-11T17:18:55.715Z,70.53
2022-10-11T17:21:25.436Z,70.31
2022-10-11T17:23:53.932Z,70.94
2022-10-11T17:26:26.258Z,70.84
2022-10-11T17:28:55.176Z,71.19
2022-10-11T17:31:24.237Z,72.03
2022-10-11T17:33:53.178Z,71.51
2022-10-11T17:36:30.429Z,71.82
2022-10-11T17:39:00.490Z,72.21
2022-10-11T17:41:32.034Z,72.16
2022-10-11T17:44:01.739Z,72.56
2022-10-11T17:46:32.480Z,73.47
2022-10-11T17:49:01.574Z,72.83
2022-10-11T17:51:31.564Z,73.70
2022-10-11T17:54:00.014Z,73.49
2022-10-11T17:56:33.805Z,74.04
2022-10-11T17:59:04.930Z,73.95
2022-10-11T18:01:33.172Z,74.36
2022-10-11T18:04:03.659Z,74.82
2022-10-11T18:06:38.941Z,74.88
2022-10-11T18:09:07.786Z,75.22
2022-10-11T18:11:36.524Z,75.84
2022-10-11T18:14:05.543Z,75.83
2022-10-11T18:16:33.962Z,76.43
2022-10-11T18:19:04.584Z,76.27
2022-10-11T18:21:35.261Z,76.15
2022-10-11T18:24:05.854Z,76.62
2022-10-11T18:26:34.169Z,77.00
2022-10-11T18:29:04.021Z,77.23
2022-10-11T18:31:35.116Z,77.22
2022-10-11T18:34:03.749Z,77.35
2022-10-11T18:36:34.274Z,77.84
2022-10-11T18:39:06.837Z,77.73
2022-10-11T18:41:35.715Z,77.89
2022-10-11T18:44:06.376Z,78.26
2022-10-11T18:46:35.457Z,78.26
2022-10-11T18:49:04.142Z,78.02
2022-10-11T18:51:36.021Z,78.36
2022-10-11T18:54:05.586Z,78.72
2022-10-11T18:56:37.095Z,79.19
2022-10-11T18:59:07.562Z,78.49
2022-10-11T19:01:39.150Z,79.13
2022-10-11T19:04:10.474Z,78.87
2022-10-11T19:06:43.016Z,79.31
2022-10-11T19:09:14.052Z,79.44
2022-10-11T19:11:42.995Z,79.58
2022-10-11T19:14:15.133Z,79.72
2022-10-11T19:16:46.191Z,79.59
2022-10-11T19:19:14.726Z,80.25
2022-10-11T19:21:44.926Z,80.53
2022-10-11T19:24:13.100Z,80.57
2022-10-11T19:26:42.896Z,81.26
2022-10-11T19:29:14.661Z,81.42
2022-10-11T19:31:45.417Z,81.26
2022-10-11T19:34:14.521Z,81.12
2022-10-11T19:36:46.683Z,81.58
2022-10-11T19:39:16.033Z,81.21
2022-10-11T19:41:45.340Z,81.25
2022-10-11T19:44:14.417Z,82.07
2022-10-11T19:47:02.701Z,82.36
2022-10-11T19:49:31.289Z,82.23
2022-10-11T19:52:01.200Z,82.18
2022-10-11T19:54:29.559Z,82.18
2022-10-11T19:56:57.661Z,82.65
2022-10-11T19:59:26.804Z,82.12
2022-10-11T20:01:55.018Z,83.01
2022-10-11T20:04:50.695Z,83.20
2022-10-11T20:07:12.937Z,82.95
2022-10-11T20:09:41.125Z,83.17
2022-10-11T20:12:09.733Z,83.32
2022-10-11T20:14:37.793Z,83.36
2022-10-11T20:17:05.987Z,83.11
2022-10-11T20:19:34.237Z,83.63
2022-10-11T20:22:02.894Z,83.31
2022-10-11T20:24:34.368Z,83.63
2022-10-11T20:27:07.453Z,83.55
2022-10-11T20:29:35.614Z,84.03
2022-10-11T20:32:03.738Z,83.14
2022-10-11T20:34:31.998Z,83.40
2022-10-11T20:37:00.160Z,83.61
2022-10-11T20:39:28.513Z,83.43
2022-10-11T20:41:58.046Z,84.25
2022-10-11T20:44:26.343Z,84.37
2022-10-11T20:46:54.664Z,83.53
2022-10-11T20:49:22.800Z,84.41
2022-10-11T20:51:51.326Z,84.58
2022-10-11T20:54:19.573Z,83.81
2022-10-11T20:56:47.721Z,84.55
2022-10-11T20:59:17.267Z,84.60
2022-10-11T21:01:45.431Z,84.58
2022-10-11T21:04:19.973Z,84.70
2022-10-11T21:06:49.809Z,84.33
2022-10-11T21:09:19.038Z,84.80
2022-10-11T21:11:47.527Z,84.56
2022-10-11T21:14:17.303Z,85.06
2022-10-11T21:16:45.502Z,84.19
2022-10-11T21:19:16.299Z,84.47
2022-10-11T21:21:49.688Z,85.24
2022-10-11T21:24:21.380Z,84.22
2022-10-11T21:26:49.507Z,84.79
2022-10-11T21:29:19.350Z,84.25
2022-10-11T21:31:47.511Z,84.62
2022-10-11T21:34:16.052Z,84.70
2022-10-11T21:36:44.397Z,85.03
2022-10-11T21:39:12.502Z,85.41
2022-10-11T21:41:42.149Z,84.57
2022-10-11T21:44:10.325Z,85.32
2022-10-11T21:47:05.308Z,85.58
2022-10-11T21:49:27.897Z,84.59
2022-10-11T21:51:56.233Z,85.38
2022-10-11T21:54:24.382Z,85.20
2022-10-11T21:56:52.547Z,85.46
2022-10-11T21:59:20.674Z,85.19
2022-10-11T22:01:50.411Z,85.06
2022-10-11T22:04:18.565Z,84.83
2022-10-11T22:06:46.657Z,85.03
2022-10-11T22:09:15.005Z,85.41
2022-10-11T22:11:43.103Z,85.49
2022-10-11T22:14:11.249Z,85.58
2022-10-11T22:16:39.392Z,85.67
2022-10-11T22:19:08.937Z,85.58
2022-10-11T22:21:39.153Z,85.26
2022-10-11T22:24:09.517Z,85.30
2022-10-11T22:26:39.406Z,85.73
2022-10-11T22:29:07.572Z,85.90
2022-10-11T22:31:36.902Z,85.20
2022-10-11T22:34:05.121Z,85.19
2022-10-11T22:36:34.702Z,85.83
2022-10-11T22:39:07.576Z,85.38
2022-10-11T22:41:36.397Z,86.46
2022-10-11T22:44:05.485Z,85.57
2022-10-11T22:46:33.682Z,85.30
2022-10-11T22:49:01.802Z,85.59
2022-10-11T22:51:29.930Z,85.34
2022-10-11T22:53:59.425Z,85.81
2022-10-11T22:56:27.661Z,85.22
2022-10-11T22:58:55.727Z,86.04
2022-10-11T23:01:23.836Z,86.55
2022-10-11T23:03:52.176Z,85.54
2022-10-11T23:06:20.318Z,86.59
2022-10-11T23:08:48.513Z,85.93
2022-10-11T23:11:18.075Z,86.12
2022-10-11T23:13:46.183Z,86.00
2022-10-11T23:16:14.929Z,85.45
2022-10-11T23:18:43.557Z,86.35
2022-10-11T23:21:13.158Z,85.84
2022-10-11T23:23:41.365Z,85.88
2022-10-11T23:26:12.800Z,85.42
2022-10-11T23:28:43.330Z,85.49
2022-10-11T23:31:15.029Z,86.20
2022-10-11T23:33:43.449Z,85.46
2022-10-11T23:36:16.253Z,86.05
2022-10-11T23:38:44.771Z,86.08
2022-10-11T23:41:12.957Z,86.22
2022-10-11T23:43:42.483Z,86.56
2022-10-11T23:46:10.598Z,86.51
2022-10-11T23:48:38.859Z,86.72
2022-10-11T23:51:07.409Z,86.49
2022-10-11T23:53:36.970Z,86.04
2022-10-11T23:56:06.498Z,86.36
2022-10-11T23:58:35.028Z,86.70
